sensor_id;sensor_type;location;lat;lon;timestamp;P1;durP1;ratioP1;P2;durP2;ratioP2
62582;SDS011;48641;51.676;5.808;2024-03-23T00:55:39;7.75;;;2.85;;
62582;SDS011;48641;51.676;5.808;2024-03-23T00:58:05;6.03;;;2.28;;
62582;SDS011;48641;51.676;5.808;2024-03-23T01:00:31;6.80;;;2.80;;
62582;SDS011;48641;51.676;5.808;2024-03-23T01:02:56;6.50;;;2.67;;
62582;SDS011;48641;51.676;5.808;2024-03-23T01:05:22;6.40;;;2.35;;
62582;SDS011;48641;51.676;5.808;2024-03-23T01:07:47;5.43;;;2.42;;
62582;SDS011;48641;51.676;5.808;2024-03-23T01:10:13;7.82;;;2.72;;
62582;SDS011;48641;51.676;5.808;2024-03-23T01:12:39;7.65;;;2.83;;
62582;SDS011;48641;51.676;5.808;2024-03-23T01:15:04;7.68;;;2.72;;
62582;SDS011;48641;51.676;5.808;2024-03-23T01:17:31;7.97;;;2.60;;
62582;SDS011;48641;51.676;5.808;2024-03-23T01:19:57;6.38;;;2.17;;
62582;SDS011;48641;51.676;5.808;2024-03-23T01:22:22;7.22;;;2.53;;
62582;SDS011;48641;51.676;5.808;2024-03-23T01:24:48;8.48;;;2.60;;
62582;SDS011;48641;51.676;5.808;2024-03-23T01:27:13;6.10;;;2.30;;
62582;SDS011;48641;51.676;5.808;2024-03-23T01:29:39;6.22;;;2.30;;
62582;SDS011;48641;51.676;5.808;2024-03-23T01:32:05;6.63;;;2.45;;
62582;SDS011;48641;51.676;5.808;2024-03-23T01:34:31;6.40;;;2.38;;
62582;SDS011;48641;51.676;5.808;2024-03-23T01:36:57;8.70;;;2.55;;
62582;SDS011;48641;51.676;5.808;2024-03-23T01:39:23;6.72;;;2.58;;
62582;SDS011;48641;51.676;5.808;2024-03-23T01:41:49;6.43;;;2.70;;
62582;SDS011;48641;51.676;5.808;2024-03-23T01:44:15;7.10;;;2.38;;
62582;SDS011;48641;51.676;5.808;2024-03-23T01:46:41;6.80;;;2.53;;
62582;SDS011;48641;51.676;5.808;2024-03-23T01:49:07;7.18;;;2.53;;
62582;SDS011;48641;51.676;5.808;2024-03-23T01:51:33;6.78;;;2.55;;
62582;SDS011;48641;51.676;5.808;2024-03-23T01:54:00;5.90;;;2.33;;
62582;SDS011;48641;51.676;5.808;2024-03-23T01:56:37;6.03;;;2.47;;
62582;SDS011;48641;51.676;5.808;2024-03-23T01:59:03;5.75;;;2.22;;
62582;SDS011;48641;51.676;5.808;2024-03-23T02:01:29;7.43;;;2.10;;
62582;SDS011;48641;51.676;5.808;2024-03-23T02:03:55;6.85;;;2.38;;
62582;SDS011;48641;51.676;5.808;2024-03-23T02:06:21;5.55;;;2.30;;
62582;SDS011;48641;51.676;5.808;2024-03-23T02:08:47;6.63;;;2.20;;
62582;SDS011;48641;51.676;5.808;2024-03-23T02:11:13;6.90;;;2.47;;
62582;SDS011;48641;51.676;5.808;2024-03-23T02:13:39;6.28;;;2.10;;
62582;SDS011;48641;51.676;5.808;2024-03-23T02:16:05;6.85;;;2.30;;
62582;SDS011;48641;51.676;5.808;2024-03-23T02:18:31;8.32;;;2.42;;
62582;SDS011;48641;51.676;5.808;2024-03-23T02:20:57;6.95;;;2.53;;
62582;SDS011;48641;51.676;5.808;2024-03-23T02:23:23;7.78;;;2.33;;
62582;SDS011;48641;51.676;5.808;2024-03-23T02:25:49;6.70;;;2.20;;
62582;SDS011;48641;51.676;5.808;2024-03-23T02:28:15;6.80;;;2.33;;
62582;SDS011;48641;51.676;5.808;2024-03-23T02:30:42;6.53;;;2.10;;
62582;SDS011;48641;51.676;5.808;2024-03-23T02:33:07;6.85;;;2.50;;
62582;SDS011;48641;51.676;5.808;2024-03-23T02:35:33;4.40;;;1.80;;
62582;SDS011;48641;51.676;5.808;2024-03-23T02:37:59;5.80;;;2.13;;
62582;SDS011;48641;51.676;5.808;2024-03-23T02:40:24;6.50;;;2.08;;
62582;SDS011;48641;51.676;5.808;2024-03-23T02:42:50;5.43;;;1.98;;
62582;SDS011;48641;51.676;5.808;2024-03-23T02:45:16;6.65;;;2.33;;
62582;SDS011;48641;51.676;5.808;2024-03-23T02:47:42;6.07;;;2.20;;
62582;SDS011;48641;51.676;5.808;2024-03-23T02:50:07;6.93;;;2.30;;
62582;SDS011;48641;51.676;5.808;2024-03-23T02:52:34;7.18;;;2.47;;
62582;SDS011;48641;51.676;5.808;2024-03-23T02:55:00;6.82;;;2.17;;
62582;SDS011;48641;51.676;5.808;2024-03-23T02:57:27;5.93;;;2.05;;
62582;SDS011;48641;51.676;5.808;2024-03-23T02:59:52;6.68;;;2.20;;
62582;SDS011;48641;51.676;5.808;2024-03-23T03:02:19;7.53;;;2.40;;
62582;SDS011;48641;51.676;5.808;2024-03-23T03:04:46;6.05;;;1.92;;
62582;SDS011;48641;51.676;5.808;2024-03-23T03:07:11;6.65;;;2.28;;
62582;SDS011;48641;51.676;5.808;2024-03-23T03:09:37;5.68;;;1.98;;
62582;SDS011;48641;51.676;5.808;2024-03-23T03:12:04;6.65;;;2.13;;
62582;SDS011;48641;51.676;5.808;2024-03-23T03:16:58;6.78;;;2.22;;
62582;SDS011;48641;51.676;5.808;2024-03-23T03:19:24;6.55;;;1.90;;
62582;SDS011;48641;51.676;5.808;2024-03-23T03:21:50;5.95;;;1.95;;
62582;SDS011;48641;51.676;5.808;2024-03-23T03:24:15;5.40;;;2.13;;
62582;SDS011;48641;51.676;5.808;2024-03-23T03:26:41;5.47;;;1.92;;
62582;SDS011;48641;51.676;5.808;2024-03-23T03:29:07;8.52;;;2.15;;
62582;SDS011;48641;51.676;5.808;2024-03-23T03:31:33;6.35;;;1.90;;
62582;SDS011;48641;51.676;5.808;2024-03-23T03:33:58;5.32;;;2.00;;
62582;SDS011;48641;51.676;5.808;2024-03-23T03:36:24;6.53;;;1.90;;
62582;SDS011;48641;51.676;5.808;2024-03-23T03:38:49;6.05;;;1.85;;
62582;SDS011;48641;51.676;5.808;2024-03-23T03:41:15;5.10;;;1.98;;
62582;SDS011;48641;51.676;5.808;2024-03-23T03:43:41;6.03;;;2.00;;
62582;SDS011;48641;51.676;5.808;2024-03-23T03:46:06;6.28;;;1.92;;
62582;SDS011;48641;51.676;5.808;2024-03-23T03:51:01;6.38;;;2.00;;
62582;SDS011;48641;51.676;5.808;2024-03-23T03:53:27;6.00;;;1.70;;
62582;SDS011;48641;51.676;5.808;2024-03-23T03:55:52;7.47;;;2.53;;
62582;SDS011;48641;51.676;5.808;2024-03-23T03:58:18;4.80;;;1.77;;
62582;SDS011;48641;51.676;5.808;2024-03-23T04:00:43;5.90;;;2.45;;
62582;SDS011;48641;51.676;5.808;2024-03-23T04:03:09;8.10;;;2.03;;
62582;SDS011;48641;51.676;5.808;2024-03-23T04:05:35;8.52;;;2.70;;
62582;SDS011;48641;51.676;5.808;2024-03-23T04:08:00;5.25;;;1.90;;
62582;SDS011;48641;51.676;5.808;2024-03-23T04:10:26;5.68;;;2.22;;
62582;SDS011;48641;51.676;5.808;2024-03-23T04:12:52;6.32;;;1.85;;
62582;SDS011;48641;51.676;5.808;2024-03-23T04:15:18;7.70;;;1.98;;
62582;SDS011;48641;51.676;5.808;2024-03-23T04:17:44;6.50;;;2.15;;
62582;SDS011;48641;51.676;5.808;2024-03-23T04:20:10;7.72;;;2.40;;
62582;SDS011;48641;51.676;5.808;2024-03-23T04:22:39;5.93;;;1.88;;
62582;SDS011;48641;51.676;5.808;2024-03-23T04:25:05;6.22;;;1.83;;
62582;SDS011;48641;51.676;5.808;2024-03-23T04:27:35;6.45;;;2.05;;
62582;SDS011;48641;51.676;5.808;2024-03-23T04:30:01;5.95;;;1.80;;
62582;SDS011;48641;51.676;5.808;2024-03-23T04:32:29;6.07;;;2.03;;
62582;SDS011;48641;51.676;5.808;2024-03-23T04:34:55;5.85;;;1.95;;
62582;SDS011;48641;51.676;5.808;2024-03-23T04:37:21;6.20;;;1.63;;
62582;SDS011;48641;51.676;5.808;2024-03-23T04:39:47;6.30;;;2.00;;
62582;SDS011;48641;51.676;5.808;2024-03-23T04:42:14;6.15;;;1.80;;
62582;SDS011;48641;51.676;5.808;2024-03-23T04:44:41;5.88;;;1.75;;
62582;SDS011;48641;51.676;5.808;2024-03-23T04:47:06;6.13;;;1.85;;
62582;SDS011;48641;51.676;5.808;2024-03-23T04:49:32;7.28;;;2.10;;
62582;SDS011;48641;51.676;5.808;2024-03-23T04:51:58;7.25;;;1.90;;
62582;SDS011;48641;51.676;5.808;2024-03-23T04:54:23;6.20;;;1.65;;
62582;SDS011;48641;51.676;5.808;2024-03-23T04:56:49;6.03;;;1.80;;
62582;SDS011;48641;51.676;5.808;2024-03-23T04:59:14;6.25;;;1.60;;
62582;SDS011;48641;51.676;5.808;2024-03-23T05:01:40;5.50;;;1.77;;
62582;SDS011;48641;51.676;5.808;2024-03-23T05:04:07;5.57;;;1.80;;
62582;SDS011;48641;51.676;5.808;2024-03-23T05:06:33;4.53;;;1.85;;
62582;SDS011;48641;51.676;5.808;2024-03-23T05:08:59;6.65;;;1.95;;
62582;SDS011;48641;51.676;5.808;2024-03-23T05:11:27;5.72;;;1.70;;
62582;SDS011;48641;51.676;5.808;2024-03-23T05:13:53;6.60;;;1.67;;
62582;SDS011;48641;51.676;5.808;2024-03-23T05:16:19;5.72;;;1.63;;
62582;SDS011;48641;51.676;5.808;2024-03-23T05:18:44;5.55;;;1.67;;
62582;SDS011;48641;51.676;5.808;2024-03-23T05:21:11;4.60;;;1.60;;
62582;SDS011;48641;51.676;5.808;2024-03-23T05:23:37;6.75;;;1.60;;
62582;SDS011;48641;51.676;5.808;2024-03-23T05:26:03;5.38;;;1.58;;
62582;SDS011;48641;51.676;5.808;2024-03-23T05:28:29;5.30;;;1.52;;
62582;SDS011;48641;51.676;5.808;2024-03-23T05:30:55;5.10;;;1.58;;
62582;SDS011;48641;51.676;5.808;2024-03-23T05:33:22;4.82;;;1.55;;
62582;SDS011;48641;51.676;5.808;2024-03-23T05:35:55;5.50;;;1.80;;
62582;SDS011;48641;51.676;5.808;2024-03-23T05:38:21;4.57;;;1.40;;
62582;SDS011;48641;51.676;5.808;2024-03-23T05:40:59;4.93;;;1.48;;
62582;SDS011;48641;51.676;5.808;2024-03-23T05:43:25;7.93;;;1.73;;
62582;SDS011;48641;51.676;5.808;2024-03-23T05:45:58;7.75;;;1.90;;
62582;SDS011;48641;51.676;5.808;2024-03-23T05:48:26;3.83;;;1.48;;
62582;SDS011;48641;51.676;5.808;2024-03-23T05:50:53;5.90;;;1.60;;
62582;SDS011;48641;51.676;5.808;2024-03-23T05:53:19;4.82;;;1.40;;
62582;SDS011;48641;51.676;5.808;2024-03-23T05:55:48;5.72;;;1.58;;
62582;SDS011;48641;51.676;5.808;2024-03-23T05:58:17;5.18;;;1.50;;
62582;SDS011;48641;51.676;5.808;2024-03-23T06:00:43;4.43;;;1.35;;
62582;SDS011;48641;51.676;5.808;2024-03-23T06:03:09;5.40;;;1.30;;
62582;SDS011;48641;51.676;5.808;2024-03-23T06:05:36;6.15;;;1.58;;
62582;SDS011;48641;51.676;5.808;2024-03-23T06:08:02;4.68;;;1.35;;
62582;SDS011;48641;51.676;5.808;2024-03-23T06:10:28;5.75;;;1.65;;
62582;SDS011;48641;51.676;5.808;2024-03-23T06:12:53;5.47;;;1.60;;
62582;SDS011;48641;51.676;5.808;2024-03-23T06:15:19;6.05;;;1.52;;
62582;SDS011;48641;51.676;5.808;2024-03-23T06:17:45;7.30;;;1.73;;
62582;SDS011;48641;51.676;5.808;2024-03-23T06:20:10;4.40;;;1.40;;
62582;SDS011;48641;51.676;5.808;2024-03-23T06:22:36;4.60;;;1.40;;
62582;SDS011;48641;51.676;5.808;2024-03-23T06:25:02;5.72;;;1.50;;
62582;SDS011;48641;51.676;5.808;2024-03-23T06:27:28;6.38;;;1.67;;
62582;SDS011;48641;51.676;5.808;2024-03-23T06:29:54;5.72;;;1.45;;
62582;SDS011;48641;51.676;5.808;2024-03-23T06:32:20;7.28;;;1.63;;
62582;SDS011;48641;51.676;5.808;2024-03-23T06:34:46;5.85;;;1.40;;
62582;SDS011;48641;51.676;5.808;2024-03-23T06:37:11;4.85;;;1.45;;
62582;SDS011;48641;51.676;5.808;2024-03-23T06:39:37;4.70;;;1.45;;
62582;SDS011;48641;51.676;5.808;2024-03-23T06:42:03;4.78;;;1.60;;
62582;SDS011;48641;51.676;5.808;2024-03-23T06:44:29;4.65;;;1.45;;
62582;SDS011;48641;51.676;5.808;2024-03-23T06:46:55;13.00;;;2.40;;
62582;SDS011;48641;51.676;5.808;2024-03-23T06:49:21;6.30;;;1.77;;
62582;SDS011;48641;51.676;5.808;2024-03-23T06:51:47;7.30;;;2.05;;
62582;SDS011;48641;51.676;5.808;2024-03-23T06:54:13;8.98;;;2.10;;
62582;SDS011;48641;51.676;5.808;2024-03-23T06:56:41;11.23;;;2.55;;
62582;SDS011;48641;51.676;5.808;2024-03-23T06:59:06;7.88;;;2.20;;
62582;SDS011;48641;51.676;5.808;2024-03-23T07:01:32;9.40;;;2.38;;
62582;SDS011;48641;51.676;5.808;2024-03-23T07:03:58;8.50;;;2.25;;
62582;SDS011;48641;51.676;5.808;2024-03-23T07:06:23;9.77;;;2.97;;
62582;SDS011;48641;51.676;5.808;2024-03-23T07:08:49;9.20;;;1.98;;
62582;SDS011;48641;51.676;5.808;2024-03-23T07:11:18;7.28;;;2.60;;
62582;SDS011;48641;51.676;5.808;2024-03-23T07:13:45;9.82;;;2.42;;
62582;SDS011;48641;51.676;5.808;2024-03-23T07:16:10;11.10;;;2.70;;
62582;SDS011;48641;51.676;5.808;2024-03-23T07:18:36;9.00;;;2.47;;
62582;SDS011;48641;51.676;5.808;2024-03-23T07:21:02;10.25;;;2.67;;
62582;SDS011;48641;51.676;5.808;2024-03-23T07:23:28;8.75;;;2.33;;
62582;SDS011;48641;51.676;5.808;2024-03-23T07:26:00;11.52;;;2.75;;
62582;SDS011;48641;51.676;5.808;2024-03-23T07:28:28;8.48;;;2.25;;
62582;SDS011;48641;51.676;5.808;2024-03-23T07:33:50;10.60;;;2.30;;
62582;SDS011;48641;51.676;5.808;2024-03-23T07:36:15;6.95;;;1.98;;
62582;SDS011;48641;51.676;5.808;2024-03-23T07:38:41;9.07;;;2.05;;
62582;SDS011;48641;51.676;5.808;2024-03-23T07:43:37;9.25;;;2.17;;
62582;SDS011;48641;51.676;5.808;2024-03-23T07:46:03;8.32;;;1.98;;
62582;SDS011;48641;51.676;5.808;2024-03-23T07:48:30;7.57;;;2.10;;
62582;SDS011;48641;51.676;5.808;2024-03-23T07:50:59;5.88;;;1.83;;
62582;SDS011;48641;51.676;5.808;2024-03-23T07:53:32;7.00;;;2.22;;
62582;SDS011;48641;51.676;5.808;2024-03-23T07:55:59;9.45;;;2.15;;
62582;SDS011;48641;51.676;5.808;2024-03-23T07:58:26;7.30;;;2.22;;
62582;SDS011;48641;51.676;5.808;2024-03-23T08:00:53;7.25;;;1.83;;
62582;SDS011;48641;51.676;5.808;2024-03-23T08:03:19;5.15;;;1.45;;
62582;SDS011;48641;51.676;5.808;2024-03-23T08:05:45;7.80;;;1.90;;
62582;SDS011;48641;51.676;5.808;2024-03-23T08:08:11;8.77;;;1.92;;
62582;SDS011;48641;51.676;5.808;2024-03-23T08:10:37;7.47;;;2.00;;
62582;SDS011;48641;51.676;5.808;2024-03-23T08:13:11;6.60;;;1.73;;
62582;SDS011;48641;51.676;5.808;2024-03-23T08:15:37;7.47;;;2.22;;
62582;SDS011;48641;51.676;5.808;2024-03-23T08:18:02;6.80;;;1.83;;
62582;SDS011;48641;51.676;5.808;2024-03-23T08:20:29;5.63;;;1.60;;
62582;SDS011;48641;51.676;5.808;2024-03-23T08:22:54;6.03;;;1.70;;
62582;SDS011;48641;51.676;5.808;2024-03-23T08:25:22;9.33;;;1.77;;
62582;SDS011;48641;51.676;5.808;2024-03-23T08:27:48;6.63;;;1.40;;
62582;SDS011;48641;51.676;5.808;2024-03-23T08:30:14;6.38;;;1.55;;
62582;SDS011;48641;51.676;5.808;2024-03-23T08:32:39;7.28;;;1.77;;
62582;SDS011;48641;51.676;5.808;2024-03-23T08:35:05;9.20;;;2.13;;
62582;SDS011;48641;51.676;5.808;2024-03-23T08:37:31;6.28;;;1.60;;
62582;SDS011;48641;51.676;5.808;2024-03-23T08:39:57;7.07;;;1.42;;
62582;SDS011;48641;51.676;5.808;2024-03-23T08:42:23;8.07;;;1.90;;
62582;SDS011;48641;51.676;5.808;2024-03-23T08:44:49;8.35;;;2.15;;
62582;SDS011;48641;51.676;5.808;2024-03-23T08:47:15;8.40;;;1.67;;
62582;SDS011;48641;51.676;5.808;2024-03-23T08:49:41;6.95;;;1.88;;
62582;SDS011;48641;51.676;5.808;2024-03-23T08:52:07;6.90;;;1.60;;
62582;SDS011;48641;51.676;5.808;2024-03-23T08:54:33;6.55;;;1.40;;
62582;SDS011;48641;51.676;5.808;2024-03-23T08:56:59;6.88;;;1.40;;
62582;SDS011;48641;51.676;5.808;2024-03-23T08:59:25;8.45;;;1.60;;
62582;SDS011;48641;51.676;5.808;2024-03-23T09:01:50;5.85;;;1.55;;
62582;SDS011;48641;51.676;5.808;2024-03-23T09:04:16;4.65;;;1.40;;
62582;SDS011;48641;51.676;5.808;2024-03-23T09:06:42;7.43;;;1.40;;
62582;SDS011;48641;51.676;5.808;2024-03-23T09:09:08;4.50;;;1.20;;
62582;SDS011;48641;51.676;5.808;2024-03-23T09:11:34;5.38;;;1.40;;
62582;SDS011;48641;51.676;5.808;2024-03-23T09:13:59;6.95;;;1.30;;
62582;SDS011;48641;51.676;5.808;2024-03-23T09:16:25;8.15;;;1.55;;
62582;SDS011;48641;51.676;5.808;2024-03-23T09:18:51;7.55;;;1.20;;
62582;SDS011;48641;51.676;5.808;2024-03-23T09:21:17;7.78;;;1.40;;
62582;SDS011;48641;51.676;5.808;2024-03-23T09:23:43;4.90;;;1.35;;
62582;SDS011;48641;51.676;5.808;2024-03-23T09:26:09;5.88;;;1.10;;
62582;SDS011;48641;51.676;5.808;2024-03-23T09:28:35;6.70;;;1.60;;
62582;SDS011;48641;51.676;5.808;2024-03-23T09:31:04;5.63;;;1.48;;
62582;SDS011;48641;51.676;5.808;2024-03-23T09:33:30;6.75;;;1.30;;
62582;SDS011;48641;51.676;5.808;2024-03-23T09:35:56;5.25;;;1.20;;
62582;SDS011;48641;51.676;5.808;2024-03-23T09:38:22;6.05;;;1.90;;
62582;SDS011;48641;51.676;5.808;2024-03-23T09:40:50;5.60;;;1.15;;
62582;SDS011;48641;51.676;5.808;2024-03-23T09:43:18;4.00;;;1.10;;
62582;SDS011;48641;51.676;5.808;2024-03-23T09:45:44;6.93;;;1.33;;
62582;SDS011;48641;51.676;5.808;2024-03-23T09:48:11;7.00;;;1.38;;
62582;SDS011;48641;51.676;5.808;2024-03-23T09:50:38;4.80;;;0.90;;
62582;SDS011;48641;51.676;5.808;2024-03-23T09:53:04;4.60;;;1.20;;
62582;SDS011;48641;51.676;5.808;2024-03-23T09:55:34;4.80;;;1.30;;
62582;SDS011;48641;51.676;5.808;2024-03-23T09:58:02;5.32;;;1.40;;
62582;SDS011;48641;51.676;5.808;2024-03-23T10:00:30;4.43;;;1.40;;
62582;SDS011;48641;51.676;5.808;2024-03-23T10:02:56;4.68;;;1.58;;
62582;SDS011;48641;51.676;5.808;2024-03-23T10:05:27;5.45;;;1.70;;
62582;SDS011;48641;51.676;5.808;2024-03-23T10:10:39;6.07;;;2.03;;
62582;SDS011;48641;51.676;5.808;2024-03-23T10:13:05;5.32;;;2.20;;
62582;SDS011;48641;51.676;5.808;2024-03-23T10:15:32;7.30;;;2.58;;
62582;SDS011;48641;51.676;5.808;2024-03-23T10:18:20;8.60;;;3.08;;
62582;SDS011;48641;51.676;5.808;2024-03-23T10:21:14;8.10;;;3.30;;
62582;SDS011;48641;51.676;5.808;2024-03-23T10:23:41;9.82;;;3.80;;
62582;SDS011;48641;51.676;5.808;2024-03-23T10:26:15;7.53;;;3.80;;
62582;SDS011;48641;51.676;5.808;2024-03-23T10:28:53;7.00;;;3.85;;
62582;SDS011;48641;51.676;5.808;2024-03-23T10:31:23;8.88;;;3.67;;
62582;SDS011;48641;51.676;5.808;2024-03-23T10:33:49;11.68;;;4.32;;
62582;SDS011;48641;51.676;5.808;2024-03-23T10:36:15;10.63;;;4.55;;
62582;SDS011;48641;51.676;5.808;2024-03-23T10:38:43;11.25;;;5.40;;
62582;SDS011;48641;51.676;5.808;2024-03-23T10:41:12;10.98;;;5.25;;
62582;SDS011;48641;51.676;5.808;2024-03-23T10:43:38;9.18;;;5.75;;
62582;SDS011;48641;51.676;5.808;2024-03-23T10:46:04;9.20;;;5.45;;
62582;SDS011;48641;51.676;5.808;2024-03-23T10:48:33;9.57;;;6.47;;
62582;SDS011;48641;51.676;5.808;2024-03-23T10:50:59;9.40;;;6.53;;
62582;SDS011;48641;51.676;5.808;2024-03-23T10:53:26;10.85;;;7.60;;
62582;SDS011;48641;51.676;5.808;2024-03-23T10:55:53;11.00;;;7.50;;
62582;SDS011;48641;51.676;5.808;2024-03-23T10:58:21;11.82;;;7.43;;
62582;SDS011;48641;51.676;5.808;2024-03-23T11:00:55;9.18;;;7.97;;
62582;SDS011;48641;51.676;5.808;2024-03-23T11:03:30;10.55;;;7.57;;
62582;SDS011;48641;51.676;5.808;2024-03-23T11:06:01;10.45;;;7.38;;
62582;SDS011;48641;51.676;5.808;2024-03-23T11:13:47;10.27;;;8.40;;
62582;SDS011;48641;51.676;5.808;2024-03-23T11:16:23;12.00;;;8.00;;
62582;SDS011;48641;51.676;5.808;2024-03-23T11:18:53;9.98;;;8.05;;
62582;SDS011;48641;51.676;5.808;2024-03-23T11:24:18;11.80;;;8.98;;
62582;SDS011;48641;51.676;5.808;2024-03-23T11:26:45;13.57;;;9.68;;
62582;SDS011;48641;51.676;5.808;2024-03-23T11:29:12;11.63;;;9.57;;
62582;SDS011;48641;51.676;5.808;2024-03-23T11:31:38;10.88;;;9.18;;
62582;SDS011;48641;51.676;5.808;2024-03-23T11:34:10;10.45;;;8.70;;
62582;SDS011;48641;51.676;5.808;2024-03-23T11:36:36;12.18;;;8.77;;
62582;SDS011;48641;51.676;5.808;2024-03-23T11:39:11;11.88;;;10.10;;
62582;SDS011;48641;51.676;5.808;2024-03-23T11:41:55;11.57;;;8.73;;
62582;SDS011;48641;51.676;5.808;2024-03-23T11:44:22;11.10;;;8.73;;
62582;SDS011;48641;51.676;5.808;2024-03-23T11:46:50;11.17;;;8.03;;
62582;SDS011;48641;51.676;5.808;2024-03-23T11:49:26;12.98;;;9.20;;
62582;SDS011;48641;51.676;5.808;2024-03-23T11:51:54;11.05;;;7.82;;
62582;SDS011;48641;51.676;5.808;2024-03-23T11:54:21;11.90;;;9.27;;
62582;SDS011;48641;51.676;5.808;2024-03-23T11:59:34;10.98;;;8.85;;
62582;SDS011;48641;51.676;5.808;2024-03-23T12:02:05;11.73;;;8.50;;
62582;SDS011;48641;51.676;5.808;2024-03-23T12:04:32;10.55;;;6.97;;
62582;SDS011;48641;51.676;5.808;2024-03-23T12:09:37;12.20;;;8.88;;
62582;SDS011;48641;51.676;5.808;2024-03-23T12:12:07;12.95;;;9.70;;
62582;SDS011;48641;51.676;5.808;2024-03-23T12:14:40;12.50;;;9.98;;
62582;SDS011;48641;51.676;5.808;2024-03-23T12:17:13;11.13;;;8.93;;
62582;SDS011;48641;51.676;5.808;2024-03-23T12:19:40;13.63;;;8.93;;
62582;SDS011;48641;51.676;5.808;2024-03-23T12:22:06;11.88;;;9.32;;
62582;SDS011;48641;51.676;5.808;2024-03-23T12:24:33;11.30;;;9.02;;
62582;SDS011;48641;51.676;5.808;2024-03-23T12:27:00;10.75;;;9.05;;
62582;SDS011;48641;51.676;5.808;2024-03-23T12:29:32;10.32;;;8.52;;
62582;SDS011;48641;51.676;5.808;2024-03-23T12:31:59;11.20;;;9.40;;
62582;SDS011;48641;51.676;5.808;2024-03-23T12:34:25;13.02;;;9.35;;
62582;SDS011;48641;51.676;5.808;2024-03-23T12:36:51;11.52;;;8.90;;
62582;SDS011;48641;51.676;5.808;2024-03-23T12:39:17;11.40;;;8.50;;
62582;SDS011;48641;51.676;5.808;2024-03-23T12:41:43;10.52;;;7.80;;
62582;SDS011;48641;51.676;5.808;2024-03-23T12:44:09;11.93;;;7.78;;
62582;SDS011;48641;51.676;5.808;2024-03-23T12:46:36;9.88;;;7.97;;
62582;SDS011;48641;51.676;5.808;2024-03-23T12:49:03;10.73;;;7.45;;
62582;SDS011;48641;51.676;5.808;2024-03-23T12:51:28;12.00;;;8.57;;
62582;SDS011;48641;51.676;5.808;2024-03-23T12:53:54;11.45;;;7.78;;
62582;SDS011;48641;51.676;5.808;2024-03-23T12:56:19;9.93;;;5.53;;
62582;SDS011;48641;51.676;5.808;2024-03-23T12:58:45;9.85;;;7.15;;
62582;SDS011;48641;51.676;5.808;2024-03-23T13:01:15;9.18;;;7.60;;
62582;SDS011;48641;51.676;5.808;2024-03-23T13:03:40;9.50;;;6.95;;
62582;SDS011;48641;51.676;5.808;2024-03-23T13:06:06;8.98;;;6.63;;
62582;SDS011;48641;51.676;5.808;2024-03-23T13:08:33;10.27;;;6.63;;
62582;SDS011;48641;51.676;5.808;2024-03-23T13:10:59;9.25;;;6.47;;
62582;SDS011;48641;51.676;5.808;2024-03-23T13:13:24;8.70;;;6.40;;
62582;SDS011;48641;51.676;5.808;2024-03-23T13:15:50;10.13;;;6.75;;
62582;SDS011;48641;51.676;5.808;2024-03-23T13:18:16;9.10;;;6.05;;
62582;SDS011;48641;51.676;5.808;2024-03-23T13:20:41;8.73;;;6.00;;
62582;SDS011;48641;51.676;5.808;2024-03-23T13:23:07;9.73;;;6.30;;
62582;SDS011;48641;51.676;5.808;2024-03-23T13:25:33;8.52;;;5.35;;
62582;SDS011;48641;51.676;5.808;2024-03-23T13:27:59;9.05;;;5.35;;
62582;SDS011;48641;51.676;5.808;2024-03-23T13:30:26;8.30;;;5.80;;
62582;SDS011;48641;51.676;5.808;2024-03-23T13:32:51;9.05;;;5.70;;
62582;SDS011;48641;51.676;5.808;2024-03-23T13:35:17;10.50;;;6.32;;
62582;SDS011;48641;51.676;5.808;2024-03-23T13:37:43;10.95;;;7.60;;
62582;SDS011;48641;51.676;5.808;2024-03-23T13:40:09;11.65;;;7.32;;
62582;SDS011;48641;51.676;5.808;2024-03-23T13:42:35;12.93;;;6.45;;
62582;SDS011;48641;51.676;5.808;2024-03-23T13:45:00;11.70;;;6.90;;
62582;SDS011;48641;51.676;5.808;2024-03-23T13:47:26;29.02;;;8.02;;
62582;SDS011;48641;51.676;5.808;2024-03-23T13:49:53;16.40;;;6.32;;
62582;SDS011;48641;51.676;5.808;2024-03-23T13:52:18;13.45;;;6.38;;
62582;SDS011;48641;51.676;5.808;2024-03-23T13:54:47;14.95;;;6.00;;
62582;SDS011;48641;51.676;5.808;2024-03-23T13:57:13;11.18;;;5.55;;
62582;SDS011;48641;51.676;5.808;2024-03-23T13:59:39;10.45;;;5.10;;
62582;SDS011;48641;51.676;5.808;2024-03-23T14:02:04;11.25;;;5.78;;
62582;SDS011;48641;51.676;5.808;2024-03-23T14:04:30;15.38;;;6.03;;
62582;SDS011;48641;51.676;5.808;2024-03-23T14:06:56;12.57;;;5.20;;
62582;SDS011;48641;51.676;5.808;2024-03-23T14:09:21;10.18;;;4.90;;
62582;SDS011;48641;51.676;5.808;2024-03-23T14:11:50;10.45;;;5.05;;
62582;SDS011;48641;51.676;5.808;2024-03-23T14:14:16;8.48;;;4.47;;
62582;SDS011;48641;51.676;5.808;2024-03-23T14:16:42;20.58;;;5.68;;
62582;SDS011;48641;51.676;5.808;2024-03-23T14:19:08;9.40;;;3.60;;
62582;SDS011;48641;51.676;5.808;2024-03-23T14:21:34;10.38;;;4.10;;
62582;SDS011;48641;51.676;5.808;2024-03-23T14:24:00;8.63;;;3.88;;
62582;SDS011;48641;51.676;5.808;2024-03-23T14:26:26;11.38;;;4.10;;
62582;SDS011;48641;51.676;5.808;2024-03-23T14:28:52;12.52;;;4.63;;
62582;SDS011;48641;51.676;5.808;2024-03-23T14:31:17;14.57;;;4.10;;
62582;SDS011;48641;51.676;5.808;2024-03-23T14:33:43;11.57;;;4.35;;
62582;SDS011;48641;51.676;5.808;2024-03-23T14:36:12;10.50;;;4.47;;
62582;SDS011;48641;51.676;5.808;2024-03-23T14:38:38;9.68;;;4.00;;
62582;SDS011;48641;51.676;5.808;2024-03-23T14:41:04;16.58;;;4.22;;
62582;SDS011;48641;51.676;5.808;2024-03-23T14:43:29;17.75;;;3.60;;
62582;SDS011;48641;51.676;5.808;2024-03-23T14:48:41;12.27;;;3.58;;
62582;SDS011;48641;51.676;5.808;2024-03-23T14:51:08;14.73;;;3.58;;
62582;SDS011;48641;51.676;5.808;2024-03-23T14:53:37;12.82;;;3.30;;
62582;SDS011;48641;51.676;5.808;2024-03-23T14:56:06;12.43;;;3.60;;
62582;SDS011;48641;51.676;5.808;2024-03-23T14:58:32;10.93;;;3.42;;
62582;SDS011;48641;51.676;5.808;2024-03-23T15:01:04;13.43;;;3.72;;
62582;SDS011;48641;51.676;5.808;2024-03-23T15:03:34;11.40;;;3.30;;
62582;SDS011;48641;51.676;5.808;2024-03-23T15:06:01;15.60;;;3.30;;
62582;SDS011;48641;51.676;5.808;2024-03-23T15:08:27;10.27;;;2.97;;
62582;SDS011;48641;51.676;5.808;2024-03-23T15:10:58;10.32;;;3.30;;
62582;SDS011;48641;51.676;5.808;2024-03-23T15:15:50;9.43;;;2.92;;
62582;SDS011;48641;51.676;5.808;2024-03-23T15:18:17;11.35;;;3.40;;
62582;SDS011;48641;51.676;5.808;2024-03-23T15:20:59;15.77;;;3.10;;
62582;SDS011;48641;51.676;5.808;2024-03-23T15:23:32;14.05;;;2.90;;
62582;SDS011;48641;51.676;5.808;2024-03-23T15:25:59;13.38;;;2.55;;
62582;SDS011;48641;51.676;5.808;2024-03-23T15:28:26;13.18;;;2.78;;
62582;SDS011;48641;51.676;5.808;2024-03-23T15:31:03;10.93;;;2.85;;
62582;SDS011;48641;51.676;5.808;2024-03-23T15:33:29;9.80;;;2.15;;
62582;SDS011;48641;51.676;5.808;2024-03-23T15:35:58;13.15;;;2.67;;
62582;SDS011;48641;51.676;5.808;2024-03-23T15:38:27;14.90;;;2.80;;
62582;SDS011;48641;51.676;5.808;2024-03-23T15:40:54;10.70;;;3.10;;
62582;SDS011;48641;51.676;5.808;2024-03-23T15:43:20;11.05;;;2.13;;
62582;SDS011;48641;51.676;5.808;2024-03-23T15:46:02;16.05;;;3.35;;
62582;SDS011;48641;51.676;5.808;2024-03-23T15:48:29;12.93;;;2.72;;
62582;SDS011;48641;51.676;5.808;2024-03-23T15:51:04;10.52;;;2.38;;
62582;SDS011;48641;51.676;5.808;2024-03-23T15:53:30;11.48;;;2.38;;
62582;SDS011;48641;51.676;5.808;2024-03-23T15:55:59;9.27;;;2.42;;
62582;SDS011;48641;51.676;5.808;2024-03-23T15:58:26;7.82;;;1.88;;
62582;SDS011;48641;51.676;5.808;2024-03-23T16:01:03;9.30;;;1.90;;
62582;SDS011;48641;51.676;5.808;2024-03-23T16:03:30;12.23;;;2.45;;
62582;SDS011;48641;51.676;5.808;2024-03-23T16:05:58;7.97;;;2.35;;
62582;SDS011;48641;51.676;5.808;2024-03-23T16:08:24;8.10;;;1.92;;